sensor_id;sensor_type;location;lat;lon;timestamp;P1;durP1;ratioP1;P2;durP2;ratioP2
51660;SDS011;37741;49.748;8.490;2023-04-01T00:01:04;3.40;;;1.00;;
51660;SDS011;37741;49.748;8.490;2023-04-01T00:03:31;4.65;;;1.10;;
51660;SDS011;37741;49.748;8.490;2023-04-01T00:05:58;4.30;;;1.30;;
51660;SDS011;37741;49.748;8.490;2023-04-01T00:08:25;3.90;;;1.35;;
51660;SDS011;37741;49.748;8.490;2023-04-01T00:10:51;3.92;;;0.85;;
51660;SDS011;37741;49.748;8.490;2023-04-01T00:13:18;3.92;;;1.17;;
51660;SDS011;37741;49.748;8.490;2023-04-01T00:15:45;4.07;;;1.13;;
51660;SDS011;37741;49.748;8.490;2023-04-01T00:18:11;2.75;;;1.05;;
51660;SDS011;37741;49.748;8.490;2023-04-01T00:20:37;5.57;;;0.82;;
51660;SDS011;37741;49.748;8.490;2023-04-01T00:23:03;3.85;;;0.93;;
51660;SDS011;37741;49.748;8.490;2023-04-01T00:25:30;5.30;;;1.27;;
51660;SDS011;37741;49.748;8.490;2023-04-01T00:27:55;4.50;;;1.17;;
51660;SDS011;37741;49.748;8.490;2023-04-01T00:30:21;3.85;;;1.15;;
51660;SDS011;37741;49.748;8.490;2023-04-01T00:32:50;4.63;;;1.23;;
51660;SDS011;37741;49.748;8.490;2023-04-01T00:35:17;3.13;;;0.80;;
51660;SDS011;37741;49.748;8.490;2023-04-01T00:37:42;4.55;;;1.25;;
51660;SDS011;37741;49.748;8.490;2023-04-01T00:40:19;2.85;;;1.00;;
51660;SDS011;37741;49.748;8.490;2023-04-01T00:43:00;4.82;;;1.42;;
51660;SDS011;37741;49.748;8.490;2023-04-01T00:45:37;4.88;;;1.15;;
51660;SDS011;37741;49.748;8.490;2023-04-01T00:48:09;2.72;;;0.75;;
51660;SDS011;37741;49.748;8.490;2023-04-01T00:50:38;2.63;;;1.13;;
51660;SDS011;37741;49.748;8.490;2023-04-01T00:53:08;3.15;;;0.73;;
51660;SDS011;37741;49.748;8.490;2023-04-01T00:55:36;6.53;;;1.58;;
51660;SDS011;37741;49.748;8.490;2023-04-01T00:58:07;4.63;;;1.25;;
51660;SDS011;37741;49.748;8.490;2023-04-01T01:00:38;4.25;;;0.68;;
51660;SDS011;37741;49.748;8.490;2023-04-01T01:03:04;4.85;;;1.00;;
51660;SDS011;37741;49.748;8.490;2023-04-01T01:05:34;5.03;;;1.00;;
51660;SDS011;37741;49.748;8.490;2023-04-01T01:08:29;2.78;;;0.85;;
51660;SDS011;37741;49.748;8.490;2023-04-01T01:11:10;4.80;;;1.27;;
51660;SDS011;37741;49.748;8.490;2023-04-01T01:13:43;4.85;;;1.45;;
51660;SDS011;37741;49.748;8.490;2023-04-01T01:16:24;4.00;;;0.95;;
51660;SDS011;37741;49.748;8.490;2023-04-01T01:18:55;4.30;;;1.25;;
51660;SDS011;37741;49.748;8.490;2023-04-01T01:32:38;3.88;;;1.20;;
51660;SDS011;37741;49.748;8.490;2023-04-01T01:35:30;3.33;;;0.77;;
51660;SDS011;37741;49.748;8.490;2023-04-01T01:38:03;4.68;;;1.00;;
51660;SDS011;37741;49.748;8.490;2023-04-01T01:40:37;3.03;;;0.57;;
51660;SDS011;37741;49.748;8.490;2023-04-01T01:43:08;3.30;;;0.65;;
51660;SDS011;37741;49.748;8.490;2023-04-01T01:45:36;3.72;;;0.90;;
51660;SDS011;37741;49.748;8.490;2023-04-01T01:48:07;2.80;;;0.82;;
51660;SDS011;37741;49.748;8.490;2023-04-01T01:50:35;3.42;;;1.00;;
51660;SDS011;37741;49.748;8.490;2023-04-01T01:53:03;5.32;;;1.02;;
51660;SDS011;37741;49.748;8.490;2023-04-01T01:55:32;4.13;;;1.55;;
51660;SDS011;37741;49.748;8.490;2023-04-01T01:58:04;2.85;;;1.05;;
51660;SDS011;37741;49.748;8.490;2023-04-01T02:00:48;4.93;;;1.33;;
51660;SDS011;37741;49.748;8.490;2023-04-01T02:03:18;3.67;;;0.90;;
51660;SDS011;37741;49.748;8.490;2023-04-01T02:05:47;4.63;;;1.00;;
51660;SDS011;37741;49.748;8.490;2023-04-01T02:08:16;4.03;;;1.05;;
51660;SDS011;37741;49.748;8.490;2023-04-01T02:10:58;6.70;;;1.00;;
51660;SDS011;37741;49.748;8.490;2023-04-01T02:13:31;3.20;;;0.80;;
51660;SDS011;37741;49.748;8.490;2023-04-01T02:16:02;4.33;;;1.00;;
51660;SDS011;37741;49.748;8.490;2023-04-01T02:18:35;4.20;;;1.15;;
51660;SDS011;37741;49.748;8.490;2023-04-01T02:21:03;3.03;;;1.02;;
51660;SDS011;37741;49.748;8.490;2023-04-01T02:23:30;4.15;;;0.90;;
51660;SDS011;37741;49.748;8.490;2023-04-01T02:25:59;2.72;;;0.98;;
51660;SDS011;37741;49.748;8.490;2023-04-01T02:28:25;6.85;;;0.95;;
51660;SDS011;37741;49.748;8.490;2023-04-01T02:30:53;3.90;;;1.17;;
51660;SDS011;37741;49.748;8.490;2023-04-01T02:33:19;3.72;;;1.13;;
51660;SDS011;37741;49.748;8.490;2023-04-01T02:35:46;4.78;;;1.00;;
51660;SDS011;37741;49.748;8.490;2023-04-01T02:38:11;3.50;;;0.98;;
51660;SDS011;37741;49.748;8.490;2023-04-01T02:40:41;5.47;;;1.08;;
51660;SDS011;37741;49.748;8.490;2023-04-01T02:43:08;5.43;;;1.40;;
51660;SDS011;37741;49.748;8.490;2023-04-01T02:45:33;3.88;;;0.80;;
51660;SDS011;37741;49.748;8.490;2023-04-01T02:47:59;4.07;;;1.15;;
51660;SDS011;37741;49.748;8.490;2023-04-01T02:50:24;1.83;;;0.98;;
51660;SDS011;37741;49.748;8.490;2023-04-01T02:52:50;4.15;;;1.10;;
51660;SDS011;37741;49.748;8.490;2023-04-01T02:55:15;4.20;;;0.80;;
51660;SDS011;37741;49.748;8.490;2023-04-01T02:57:41;3.85;;;1.55;;
51660;SDS011;37741;49.748;8.490;2023-04-01T03:00:07;4.57;;;0.98;;
51660;SDS011;37741;49.748;8.490;2023-04-01T03:02:36;3.17;;;0.70;;
51660;SDS011;37741;49.748;8.490;2023-04-01T03:05:03;6.07;;;1.00;;
51660;SDS011;37741;49.748;8.490;2023-04-01T03:07:30;3.97;;;0.80;;
51660;SDS011;37741;49.748;8.490;2023-04-01T03:09:56;4.40;;;1.02;;
51660;SDS011;37741;49.748;8.490;2023-04-01T03:12:21;2.53;;;0.88;;
51660;SDS011;37741;49.748;8.490;2023-04-01T03:14:47;4.20;;;0.80;;
51660;SDS011;37741;49.748;8.490;2023-04-01T03:17:13;4.80;;;1.30;;
51660;SDS011;37741;49.748;8.490;2023-04-01T03:19:38;5.88;;;1.30;;
51660;SDS011;37741;49.748;8.490;2023-04-01T03:22:04;4.80;;;1.38;;
51660;SDS011;37741;49.748;8.490;2023-04-01T03:24:29;3.78;;;0.70;;
51660;SDS011;37741;49.748;8.490;2023-04-01T03:26:55;8.23;;;1.13;;
51660;SDS011;37741;49.748;8.490;2023-04-01T03:29:21;3.53;;;1.30;;
51660;SDS011;37741;49.748;8.490;2023-04-01T03:31:46;3.50;;;1.00;;
51660;SDS011;37741;49.748;8.490;2023-04-01T03:34:12;4.53;;;1.73;;
51660;SDS011;37741;49.748;8.490;2023-04-01T03:36:37;2.90;;;0.80;;
51660;SDS011;37741;49.748;8.490;2023-04-01T03:39:03;2.13;;;0.63;;
51660;SDS011;37741;49.748;8.490;2023-04-01T03:41:30;3.25;;;1.05;;
51660;SDS011;37741;49.748;8.490;2023-04-01T03:43:57;3.17;;;0.95;;
51660;SDS011;37741;49.748;8.490;2023-04-01T03:46:22;2.30;;;0.80;;
51660;SDS011;37741;49.748;8.490;2023-04-01T03:48:48;2.00;;;0.70;;
51660;SDS011;37741;49.748;8.490;2023-04-01T03:51:14;3.95;;;0.98;;
51660;SDS011;37741;49.748;8.490;2023-04-01T03:53:39;4.88;;;1.05;;
51660;SDS011;37741;49.748;8.490;2023-04-01T03:56:05;3.50;;;0.80;;
51660;SDS011;37741;49.748;8.490;2023-04-01T03:58:32;3.13;;;0.93;;
51660;SDS011;37741;49.748;8.490;2023-04-01T04:00:58;3.75;;;0.90;;
51660;SDS011;37741;49.748;8.490;2023-04-01T04:03:23;6.20;;;1.55;;
51660;SDS011;37741;49.748;8.490;2023-04-01T04:05:49;2.60;;;0.80;;
51660;SDS011;37741;49.748;8.490;2023-04-01T04:08:15;3.78;;;0.90;;
51660;SDS011;37741;49.748;8.490;2023-04-01T04:10:41;3.30;;;1.00;;
51660;SDS011;37741;49.748;8.490;2023-04-01T04:13:07;4.00;;;0.98;;
51660;SDS011;37741;49.748;8.490;2023-04-01T04:15:33;2.30;;;0.60;;
51660;SDS011;37741;49.748;8.490;2023-04-01T04:17:59;2.78;;;0.63;;
51660;SDS011;37741;49.748;8.490;2023-04-01T04:20:24;6.28;;;1.15;;
51660;SDS011;37741;49.748;8.490;2023-04-01T04:22:50;3.40;;;2.00;;
51660;SDS011;37741;49.748;8.490;2023-04-01T04:25:16;3.22;;;0.80;;
51660;SDS011;37741;49.748;8.490;2023-04-01T04:27:41;3.85;;;1.67;;
51660;SDS011;37741;49.748;8.490;2023-04-01T04:30:07;4.88;;;0.93;;
51660;SDS011;37741;49.748;8.490;2023-04-01T04:32:34;2.90;;;0.77;;
51660;SDS011;37741;49.748;8.490;2023-04-01T04:35:00;3.53;;;0.95;;
51660;SDS011;37741;49.748;8.490;2023-04-01T04:37:25;4.05;;;1.00;;
51660;SDS011;37741;49.748;8.490;2023-04-01T04:39:51;5.70;;;1.45;;
51660;SDS011;37741;49.748;8.490;2023-04-01T04:42:17;2.88;;;0.88;;
51660;SDS011;37741;49.748;8.490;2023-04-01T04:44:43;3.65;;;0.90;;
51660;SDS011;37741;49.748;8.490;2023-04-01T04:47:08;2.40;;;0.80;;
51660;SDS011;37741;49.748;8.490;2023-04-01T04:49:34;2.35;;;0.75;;
51660;SDS011;37741;49.748;8.490;2023-04-01T04:52:00;3.80;;;1.35;;
51660;SDS011;37741;49.748;8.490;2023-04-01T04:54:25;4.80;;;0.85;;
51660;SDS011;37741;49.748;8.490;2023-04-01T04:56:52;3.90;;;1.02;;
51660;SDS011;37741;49.748;8.490;2023-04-01T04:59:17;1.98;;;0.68;;
51660;SDS011;37741;49.748;8.490;2023-04-01T05:01:43;3.95;;;0.98;;
51660;SDS011;37741;49.748;8.490;2023-04-01T05:04:09;3.45;;;0.90;;
51660;SDS011;37741;49.748;8.490;2023-04-01T05:06:34;3.10;;;0.70;;
51660;SDS011;37741;49.748;8.490;2023-04-01T05:09:00;3.00;;;0.68;;
51660;SDS011;37741;49.748;8.490;2023-04-01T05:11:25;3.33;;;0.95;;
51660;SDS011;37741;49.748;8.490;2023-04-01T05:13:52;2.58;;;0.95;;
51660;SDS011;37741;49.748;8.490;2023-04-01T05:16:18;3.35;;;0.80;;
51660;SDS011;37741;49.748;8.490;2023-04-01T05:18:45;3.33;;;0.77;;
51660;SDS011;37741;49.748;8.490;2023-04-01T05:21:12;2.38;;;0.90;;
51660;SDS011;37741;49.748;8.490;2023-04-01T05:23:38;3.40;;;0.77;;
51660;SDS011;37741;49.748;8.490;2023-04-01T05:26:09;3.10;;;0.73;;
51660;SDS011;37741;49.748;8.490;2023-04-01T05:28:36;1.85;;;0.65;;
51660;SDS011;37741;49.748;8.490;2023-04-01T05:31:02;4.05;;;0.90;;
51660;SDS011;37741;49.748;8.490;2023-04-01T05:33:29;3.13;;;0.90;;
51660;SDS011;37741;49.748;8.490;2023-04-01T05:35:55;2.08;;;0.70;;
51660;SDS011;37741;49.748;8.490;2023-04-01T05:38:21;2.80;;;1.20;;
51660;SDS011;37741;49.748;8.490;2023-04-01T05:40:47;2.15;;;0.70;;
51660;SDS011;37741;49.748;8.490;2023-04-01T05:43:13;3.17;;;0.57;;
51660;SDS011;37741;49.748;8.490;2023-04-01T05:45:38;2.22;;;0.80;;
51660;SDS011;37741;49.748;8.490;2023-04-01T05:48:04;2.85;;;1.08;;
51660;SDS011;37741;49.748;8.490;2023-04-01T05:50:30;4.97;;;0.75;;
51660;SDS011;37741;49.748;8.490;2023-04-01T05:52:56;3.75;;;0.68;;
51660;SDS011;37741;49.748;8.490;2023-04-01T05:55:22;3.17;;;0.77;;
51660;SDS011;37741;49.748;8.490;2023-04-01T05:57:48;3.05;;;0.70;;
51660;SDS011;37741;49.748;8.490;2023-04-01T06:00:14;4.53;;;0.80;;
51660;SDS011;37741;49.748;8.490;2023-04-01T06:02:41;4.75;;;1.15;;
51660;SDS011;37741;49.748;8.490;2023-04-01T06:07:36;3.17;;;0.75;;
51660;SDS011;37741;49.748;8.490;2023-04-01T06:10:02;1.65;;;0.47;;
51660;SDS011;37741;49.748;8.490;2023-04-01T06:25:47;3.13;;;0.80;;
51660;SDS011;37741;49.748;8.490;2023-04-01T06:31:25;1.70;;;0.70;;
51660;SDS011;37741;49.748;8.490;2023-04-01T06:34:03;3.92;;;0.50;;
51660;SDS011;37741;49.748;8.490;2023-04-01T06:50:24;3.63;;;0.80;;
51660;SDS011;37741;49.748;8.490;2023-04-01T06:55:59;3.90;;;0.90;;
51660;SDS011;37741;49.748;8.490;2023-04-01T06:58:35;2.13;;;0.90;;
51660;SDS011;37741;49.748;8.490;2023-04-01T07:01:07;2.17;;;0.80;;
51660;SDS011;37741;49.748;8.490;2023-04-01T07:03:39;1.67;;;0.65;;
51660;SDS011;37741;49.748;8.490;2023-04-01T07:06:45;1.20;;;0.40;;
51660;SDS011;37741;49.748;8.490;2023-04-01T07:09:12;2.50;;;0.60;;
51660;SDS011;37741;49.748;8.490;2023-04-01T07:11:43;2.70;;;0.75;;
51660;SDS011;37741;49.748;8.490;2023-04-01T07:17:07;3.70;;;0.68;;
51660;SDS011;37741;49.748;8.490;2023-04-01T07:19:45;2.47;;;0.75;;
51660;SDS011;37741;49.748;8.490;2023-04-01T07:24:57;4.72;;;0.68;;
51660;SDS011;37741;49.748;8.490;2023-04-01T07:27:30;5.32;;;0.93;;
51660;SDS011;37741;49.748;8.490;2023-04-01T07:29:56;31.58;;;3.42;;
51660;SDS011;37741;49.748;8.490;2023-04-01T07:32:26;19.15;;;1.88;;
51660;SDS011;37741;49.748;8.490;2023-04-01T07:43:41;46.42;;;4.15;;
51660;SDS011;37741;49.748;8.490;2023-04-01T07:51:17;18.92;;;2.85;;
51660;SDS011;37741;49.748;8.490;2023-04-01T07:56:45;24.52;;;2.00;;
51660;SDS011;37741;49.748;8.490;2023-04-01T08:07:59;5.60;;;1.25;;
51660;SDS011;37741;49.748;8.490;2023-04-01T08:21:28;5.57;;;0.85;;
51660;SDS011;37741;49.748;8.490;2023-04-01T08:27:11;6.88;;;1.05;;
51660;SDS011;37741;49.748;8.490;2023-04-01T08:30:02;2.85;;;0.70;;
51660;SDS011;37741;49.748;8.490;2023-04-01T08:32:30;3.92;;;0.60;;
51660;SDS011;37741;49.748;8.490;2023-04-01T08:35:07;3.13;;;1.02;;
51660;SDS011;37741;49.748;8.490;2023-04-01T08:37:34;2.83;;;0.80;;
51660;SDS011;37741;49.748;8.490;2023-04-01T08:40:16;3.42;;;0.68;;
51660;SDS011;37741;49.748;8.490;2023-04-01T08:48:51;6.15;;;0.90;;
51660;SDS011;37741;49.748;8.490;2023-04-01T08:54:26;4.20;;;0.80;;
51660;SDS011;37741;49.748;8.490;2023-04-01T08:59:47;4.15;;;0.45;;
51660;SDS011;37741;49.748;8.490;2023-04-01T09:19:45;4.85;;;1.00;;
51660;SDS011;37741;49.748;8.490;2023-04-01T09:22:37;5.40;;;2.20;;
51660;SDS011;37741;49.748;8.490;2023-04-01T09:28:27;2.53;;;0.90;;
51660;SDS011;37741;49.748;8.490;2023-04-01T09:39:17;4.47;;;0.63;;
51660;SDS011;37741;49.748;8.490;2023-04-01T09:47:16;5.32;;;0.57;;
51660;SDS011;37741;49.748;8.490;2023-04-01T09:50:13;5.20;;;0.95;;
51660;SDS011;37741;49.748;8.490;2023-04-01T09:53:02;2.17;;;0.30;;
51660;SDS011;37741;49.748;8.490;2023-04-01T09:55:49;2.95;;;0.50;;
51660;SDS011;37741;49.748;8.490;2023-04-01T10:15:40;3.10;;;0.70;;
51660;SDS011;37741;49.748;8.490;2023-04-01T10:23:49;3.72;;;0.60;;
51660;SDS011;37741;49.748;8.490;2023-04-01T10:37:54;1.25;;;0.60;;
51660;SDS011;37741;49.748;8.490;2023-04-01T10:57:41;2.10;;;0.60;;
51660;SDS011;37741;49.748;8.490;2023-04-01T11:05:47;1.65;;;0.50;;
51660;SDS011;37741;49.748;8.490;2023-04-01T11:11:34;0.65;;;0.30;;
51660;SDS011;37741;49.748;8.490;2023-04-01T11:17:45;1.08;;;0.30;;
51660;SDS011;37741;49.748;8.490;2023-04-01T11:26:08;0.73;;;0.20;;
51660;SDS011;37741;49.748;8.490;2023-04-01T11:28:53;2.00;;;0.40;;
51660;SDS011;37741;49.748;8.490;2023-04-01T11:31:34;0.55;;;0.25;;
51660;SDS011;37741;49.748;8.490;2023-04-01T11:45:49;0.60;;;0.25;;
51660;SDS011;37741;49.748;8.490;2023-04-01T11:51:44;0.77;;;0.30;;
51660;SDS011;37741;49.748;8.490;2023-04-01T11:57:06;1.45;;;0.30;;
51660;SDS011;37741;49.748;8.490;2023-04-01T12:02:42;0.70;;;0.40;;
51660;SDS011;37741;49.748;8.490;2023-04-01T12:10:45;0.80;;;0.40;;
51660;SDS011;37741;49.748;8.490;2023-04-01T12:24:46;1.00;;;0.40;;
51660;SDS011;37741;49.748;8.490;2023-04-01T12:27:39;0.68;;;0.30;;
51660;SDS011;37741;49.748;8.490;2023-04-01T12:35:39;0.85;;;0.30;;
51660;SDS011;37741;49.748;8.490;2023-04-01T12:38:41;0.63;;;0.28;;
51660;SDS011;37741;49.748;8.490;2023-04-01T13:00:56;0.50;;;0.30;;
51660;SDS011;37741;49.748;8.490;2023-04-01T13:15:09;0.93;;;0.43;;
51660;SDS011;37741;49.748;8.490;2023-04-01T13:20:43;1.13;;;0.40;;
51660;SDS011;37741;49.748;8.490;2023-04-01T13:23:23;0.80;;;0.38;;
51660;SDS011;37741;49.748;8.490;2023-04-01T13:28:43;0.73;;;0.32;;
51660;SDS011;37741;49.748;8.490;2023-04-01T13:36:50;1.25;;;0.40;;
51660;SDS011;37741;49.748;8.490;2023-04-01T13:42:21;1.23;;;0.45;;
51660;SDS011;37741;49.748;8.490;2023-04-01T13:45:14;0.68;;;0.30;;
51660;SDS011;37741;49.748;8.490;2023-04-01T13:48:11;0.25;;;0.20;;
51660;SDS011;37741;49.748;8.490;2023-04-01T13:50:57;1.70;;;0.60;;
51660;SDS011;37741;49.748;8.490;2023-04-01T14:04:49;0.35;;;0.25;;
51660;SDS011;37741;49.748;8.490;2023-04-01T14:07:36;1.05;;;0.40;;
51660;SDS011;37741;49.748;8.490;2023-04-01T14:10:18;1.50;;;0.38;;
51660;SDS011;37741;49.748;8.490;2023-04-01T14:12:56;0.70;;;0.40;;
51660;SDS011;37741;49.748;8.490;2023-04-01T14:32:12;0.43;;;0.20;;
51660;SDS011;37741;49.748;8.490;2023-04-01T14:45:58;2.75;;;1.20;;
51660;SDS011;37741;49.748;8.490;2023-04-01T14:48:52;0.82;;;0.30;;
51660;SDS011;37741;49.748;8.490;2023-04-01T14:51:34;0.70;;;0.40;;
51660;SDS011;37741;49.748;8.490;2023-04-01T14:54:06;3.00;;;0.40;;
51660;SDS011;37741;49.748;8.490;2023-04-01T14:56:47;1.05;;;0.40;;
51660;SDS011;37741;49.748;8.490;2023-04-01T14:59:25;1.55;;;0.45;;
51660;SDS011;37741;49.748;8.490;2023-04-01T15:02:14;2.10;;;0.60;;
51660;SDS011;37741;49.748;8.490;2023-04-01T15:16:03;0.50;;;0.20;;
51660;SDS011;37741;49.748;8.490;2023-04-01T15:19:00;1.08;;;0.50;;
51660;SDS011;37741;49.748;8.490;2023-04-01T15:41:18;1.33;;;0.50;;
51660;SDS011;37741;49.748;8.490;2023-04-01T15:44:24;1.23;;;0.40;;
51660;SDS011;37741;49.748;8.490;2023-04-01T15:47:24;0.60;;;0.30;;
51660;SDS011;37741;49.748;8.490;2023-04-01T15:53:07;1.42;;;0.60;;
51660;SDS011;37741;49.748;8.490;2023-04-01T15:59:01;2.42;;;0.82;;
51660;SDS011;37741;49.748;8.490;2023-04-01T16:01:58;6.13;;;0.60;;
51660;SDS011;37741;49.748;8.490;2023-04-01T16:16:14;1.33;;;0.50;;
51660;SDS011;37741;49.748;8.490;2023-04-01T16:21:33;1.95;;;1.00;;
51660;SDS011;37741;49.748;8.490;2023-04-01T16:24:22;1.08;;;0.40;;
51660;SDS011;37741;49.748;8.490;2023-04-01T16:32:26;3.00;;;1.60;;
51660;SDS011;37741;49.748;8.490;2023-04-01T16:35:14;3.70;;;2.03;;
51660;SDS011;37741;49.748;8.490;2023-04-01T16:59:37;1.83;;;0.80;;
51660;SDS011;37741;49.748;8.490;2023-04-01T17:02:10;1.95;;;0.70;;
51660;SDS011;37741;49.748;8.490;2023-04-01T17:18:41;1.77;;;0.50;;
51660;SDS011;37741;49.748;8.490;2023-04-01T17:21:13;1.80;;;0.40;;
51660;SDS011;37741;49.748;8.490;2023-04-01T17:23:45;0.60;;;0.30;;
51660;SDS011;37741;49.748;8.490;2023-04-01T17:41:53;1.50;;;0.57;;
51660;SDS011;37741;49.748;8.490;2023-04-01T17:52:35;1.13;;;0.40;;
51660;SDS011;37741;49.748;8.490;2023-04-01T17:58:06;1.80;;;0.60;;
51660;SDS011;37741;49.748;8.490;2023-04-01T18:06:10;2.10;;;0.50;;
51660;SDS011;37741;49.748;8.490;2023-04-01T18:17:12;1.90;;;0.40;;
51660;SDS011;37741;49.748;8.490;2023-04-01T18:19:51;1.60;;;0.90;;
51660;SDS011;37741;49.748;8.490;2023-04-01T18:22:39;1.88;;;0.30;;
51660;SDS011;37741;49.748;8.490;2023-04-01T18:25:28;1.45;;;0.40;;
51660;SDS011;37741;49.748;8.490;2023-04-01T18:31:17;0.80;;;0.30;;
51660;SDS011;37741;49.748;8.490;2023-04-01T18:34:01;0.43;;;0.20;;
51660;SDS011;37741;49.748;8.490;2023-04-01T18:36:47;0.90;;;0.35;;
51660;SDS011;37741;49.748;8.490;2023-04-01T18:39:59;1.35;;;0.50;;
51660;SDS011;37741;49.748;8.490;2023-04-01T18:45:26;1.15;;;0.50;;
51660;SDS011;37741;49.748;8.490;2023-04-01T18:51:10;2.15;;;0.50;;
51660;SDS011;37741;49.748;8.490;2023-04-01T18:53:56;0.93;;;0.40;;
51660;SDS011;37741;49.748;8.490;2023-04-01T18:56:35;1.70;;;0.40;;
51660;SDS011;37741;49.748;8.490;2023-04-01T18:59:20;0.93;;;0.47;;
51660;SDS011;37741;49.748;8.490;2023-04-01T19:01:50;3.35;;;0.60;;
51660;SDS011;37741;49.748;8.490;2023-04-01T19:04:31;1.63;;;0.50;;
51660;SDS011;37741;49.748;8.490;2023-04-01T19:09:49;1.13;;;0.50;;
51660;SDS011;37741;49.748;8.490;2023-04-01T19:15:08;1.35;;;0.50;;
51660;SDS011;37741;49.748;8.490;2023-04-01T19:20:57;1.33;;;0.57;;
51660;SDS011;37741;49.748;8.490;2023-04-01T19:37:16;1.40;;;0.70;;
51660;SDS011;37741;49.748;8.490;2023-04-01T19:51:46;0.82;;;0.47;;
51660;SDS011;37741;49.748;8.490;2023-04-01T19:57:27;1.80;;;0.93;;
51660;SDS011;37741;49.748;8.490;2023-04-01T20:03:17;2.40;;;1.02;;
51660;SDS011;37741;49.748;8.490;2023-04-01T20:06:02;2.20;;;0.88;;
51660;SDS011;37741;49.748;8.490;2023-04-01T20:08:54;2.03;;;0.82;;
51660;SDS011;37741;49.748;8.490;2023-04-01T20:25:38;1.65;;;0.75;;
51660;SDS011;37741;49.748;8.490;2023-04-01T20:31:04;1.77;;;0.70;;
51660;SDS011;37741;49.748;8.490;2023-04-01T20:34:22;1.65;;;0.77;;
51660;SDS011;37741;49.748;8.490;2023-04-01T20:37:06;1.65;;;0.73;;
51660;SDS011;37741;49.748;8.490;2023-04-01T20:40:02;1.63;;;0.70;;
51660;SDS011;37741;49.748;8.490;2023-04-01T20:46:01;1.80;;;0.85;;
51660;SDS011;37741;49.748;8.490;2023-04-01T20:57:20;0.93;;;0.50;;
51660;SDS011;37741;49.748;8.490;2023-04-01T21:08:39;2.30;;;0.88;;
51660;SDS011;37741;49.748;8.490;2023-04-01T21:11:41;1.73;;;0.70;;
51660;SDS011;37741;49.748;8.490;2023-04-01T21:19:56;1.27;;;0.55;;
51660;SDS011;37741;49.748;8.490;2023-04-01T21:30:37;1.77;;;0.73;;
51660;SDS011;37741;49.748;8.490;2023-04-01T21:38:36;1.30;;;0.60;;
51660;SDS011;37741;49.748;8.490;2023-04-01T21:41:29;2.78;;;0.60;;
51660;SDS011;37741;49.748;8.490;2023-04-01T21:46:54;1.25;;;0.55;;
51660;SDS011;37741;49.748;8.490;2023-04-01T22:00:32;0.77;;;0.40;;
51660;SDS011;37741;49.748;8.490;2023-04-01T22:05:58;0.82;;;0.30;;
51660;SDS011;37741;49.748;8.490;2023-04-01T22:08:46;1.67;;;0.63;;
51660;SDS011;37741;49.748;8.490;2023-04-01T22:16:56;1.20;;;0.50;;
51660;SDS011;37741;49.748;8.490;2023-04-01T22:25:19;1.63;;;0.55;;
51660;SDS011;37741;49.748;8.490;2023-04-01T22:27:55;1.20;;;0.50;;
51660;SDS011;37741;49.748;8.490;2023-04-01T22:30:31;1.42;;;0.50;;
51660;SDS011;37741;49.748;8.490;2023-04-01T22:33:45;1.60;;;0.70;;
51660;SDS011;37741;49.748;8.490;2023-04-01T22:39:18;1.80;;;0.80;;
51660;SDS011;37741;49.748;8.490;2023-04-01T22:42:02;1.70;;;0.80;;
51660;SDS011;37741;49.748;8.490;2023-04-01T22:47:22;2.03;;;0.75;;
51660;SDS011;37741;49.748;8.490;2023-04-01T22:50:20;1.90;;;0.98;;
51660;SDS011;37741;49.748;8.490;2023-04-01T22:52:54;2.33;;;0.80;;
51660;SDS011;37741;49.748;8.490;2023-04-01T22:55:27;2.58;;;0.90;;
51660;SDS011;37741;49.748;8.490;2023-04-01T22:58:14;1.40;;;0.60;;
51660;SDS011;37741;49.748;8.490;2023-04-01T23:00:50;4.10;;;0.82;;
51660;SDS011;37741;49.748;8.490;2023-04-01T23:03:21;2.28;;;0.77;;
51660;SDS011;37741;49.748;8.490;2023-04-01T23:05:54;1.65;;;0.60;;
51660;SDS011;37741;49.748;8.490;2023-04-01T23:08:35;1.73;;;0.70;;
51660;SDS011;37741;49.748;8.490;2023-04-01T23:16:57;2.80;;;1.08;;
51660;SDS011;37741;49.748;8.490;2023-04-01T23:27:33;1.50;;;0.60;;
51660;SDS011;37741;49.748;8.490;2023-04-01T23:33:26;2.05;;;0.90;;
51660;SDS011;37741;49.748;8.490;2023-04-01T23:35:59;3.42;;;0.90;;
51660;SDS011;37741;49.748;8.490;2023-04-01T23:38:35;1.45;;;0.63;;
51660;SDS011;37741;49.748;8.490;2023-04-01T23:41:04;1.52;;;0.60;;
51660;SDS011;37741;49.748;8.490;2023-04-01T23:43:32;1.15;;;0.55;;
51660;SDS011;37741;49.748;8.490;2023-04-01T23:46:02;1.17;;;0.60;;
51660;SDS011;37741;49.748;8.490;2023-04-01T23:48:46;1.80;;;0.88;;
51660;SDS011;37741;49.748;8.490;2023-04-01T23:51:13;1.10;;;0.60;;
51660;SDS011;37741;49.748;8.490;2023-04-01T23:53:45;2.08;;;1.25;;
51660;SDS011;37741;49.748;8.490;2023-04-01T23:56:12;0.88;;;0.40;;
51660;SDS011;37741;49.748;8.490;2023-04-01T23:58:45;2.13;;;0.82;;
